createdAt,value
2023-02-22T00:01:21.940Z,26.50
2023-02-22T00:03:52.691Z,26.50
2023-02-22T00:06:25.860Z,26.50
2023-02-22T00:08:56.452Z,26.50
2023-02-22T00:11:26.038Z,26.50
2023-02-22T00:13:57.438Z,26.50
2023-02-22T00:16:27.877Z,26.50
2023-02-22T00:18:56.693Z,26.50
2023-02-22T00:21:25.737Z,26.50
2023-02-22T00:23:56.734Z,26.50
2023-02-22T00:26:25.798Z,26.50
2023-02-22T00:28:56.449Z,26.50
2023-02-22T00:31:26.492Z,26.50
2023-02-22T00:33:55.267Z,26.50
2023-02-22T00:36:24.457Z,26.50
2023-02-22T00:38:53.247Z,26.50
2023-02-22T00:41:24.007Z,26.50
2023-02-22T00:43:52.865Z,26.40
2023-02-22T00:46:21.936Z,26.40
2023-02-22T00:48:50.748Z,26.40
2023-02-22T00:51:20.134Z,26.40
2023-02-22T00:53:49.616Z,26.30
2023-02-22T00:56:18.716Z,26.30
2023-02-22T00:58:48.877Z,26.20
2023-02-22T01:01:18.417Z,26.20
2023-02-22T01:03:47.579Z,26.20
2023-02-22T01:06:18.789Z,26.20
2023-02-22T01:08:49.441Z,26.10
2023-02-22T01:11:19.829Z,26.10
2023-02-22T01:13:54.160Z,26.10
2023-02-22T01:16:23.733Z,26.10
2023-02-22T01:18:52.675Z,26.00
2023-02-22T01:21:21.910Z,26.00
2023-02-22T01:23:50.761Z,26.00
2023-02-22T01:26:19.922Z,25.90
2023-02-22T01:28:50.157Z,25.80
2023-02-22T01:31:19.783Z,25.80
2023-02-22T01:33:48.826Z,25.80
2023-02-22T01:36:19.021Z,25.70
2023-02-22T01:38:48.404Z,25.70
2023-02-22T01:41:18.759Z,25.70
2023-02-22T01:43:47.637Z,25.60
2023-02-22T01:46:29.784Z,25.60
2023-02-22T01:49:03.465Z,25.60
2023-02-22T01:51:37.871Z,25.50
2023-02-22T01:54:13.640Z,25.50
2023-02-22T01:56:51.212Z,25.50
2023-02-22T01:59:23.618Z,25.50
2023-02-22T02:01:54.101Z,25.40
2023-02-22T02:04:25.872Z,25.40
2023-02-22T02:07:03.950Z,25.40
2023-02-22T02:09:41.198Z,25.30
2023-02-22T02:12:15.135Z,25.30
2023-02-22T02:14:44.594Z,25.30
2023-02-22T02:17:20.154Z,25.30
2023-02-22T02:20:02.940Z,25.20
2023-02-22T02:22:48.293Z,25.20
2023-02-22T02:26:12.039Z,25.20
2023-02-22T02:29:21.227Z,25.20
2023-02-22T02:32:23.145Z,25.20
2023-02-22T02:35:04.852Z,25.20
2023-02-22T02:37:46.331Z,25.20
2023-02-22T02:40:25.713Z,25.20
2023-02-22T02:43:06.859Z,25.20
2023-02-22T02:45:47.487Z,25.20
2023-02-22T02:48:23.179Z,25.10
2023-02-22T02:50:54.804Z,25.10
2023-02-22T02:53:33.911Z,25.10
2023-02-22T02:56:04.191Z,25.10
2023-02-22T02:58:34.127Z,25.10
2023-02-22T03:01:05.473Z,25.10
2023-02-22T03:03:57.431Z,25.10
2023-02-22T03:06:54.948Z,25.10
2023-02-22T03:09:42.369Z,25.10
2023-02-22T03:12:29.536Z,25.10
2023-02-22T03:15:14.421Z,25.10
2023-02-22T03:17:55.480Z,25.00
2023-02-22T03:20:35.125Z,25.00
2023-02-22T03:23:14.394Z,25.00
2023-02-22T03:25:53.215Z,25.00
2023-02-22T03:28:29.061Z,24.90
2023-02-22T03:31:05.566Z,24.90
2023-02-22T03:33:41.637Z,24.90
2023-02-22T03:36:20.941Z,24.90
2023-02-22T03:38:55.625Z,24.90
2023-02-22T03:41:27.951Z,24.80
2023-02-22T03:44:05.782Z,24.80
2023-02-22T03:46:37.510Z,24.80
2023-02-22T03:49:15.868Z,24.70
2023-02-22T03:51:47.060Z,24.70
2023-02-22T03:54:16.923Z,24.70
2023-02-22T03:56:55.465Z,24.70
2023-02-22T03:59:27.747Z,24.70
2023-02-22T04:01:58.313Z,24.70
2023-02-22T04:04:28.087Z,24.70
2023-02-22T04:06:59.464Z,24.70
2023-02-22T04:09:30.063Z,24.80
2023-02-22T04:11:59.440Z,24.80
2023-02-22T04:14:31.698Z,24.80
2023-02-22T04:17:00.889Z,24.80
2023-02-22T04:19:30.336Z,24.80
2023-02-22T04:22:00.907Z,24.80
2023-02-22T04:24:30.677Z,24.80
2023-02-22T04:26:59.942Z,24.80
2023-02-22T04:29:29.476Z,24.80
2023-02-22T04:31:58.284Z,24.80
2023-02-22T04:34:27.355Z,24.80
2023-02-22T04:36:56.412Z,24.80
2023-02-22T04:39:27.109Z,24.80
2023-02-22T04:41:56.383Z,24.80
2023-02-22T04:44:25.531Z,24.80
2023-02-22T04:46:54.379Z,24.90
2023-02-22T04:49:23.457Z,24.90
2023-02-22T04:51:54.004Z,24.90
2023-02-22T04:54:29.620Z,24.90
2023-02-22T04:56:58.854Z,24.90
2023-02-22T04:59:28.243Z,24.90
2023-02-22T05:02:02.479Z,24.90
2023-02-22T05:04:31.688Z,24.90
2023-02-22T05:07:00.572Z,24.90
2023-02-22T05:09:31.025Z,24.90
2023-02-22T05:11:59.774Z,24.90
2023-02-22T05:14:28.834Z,24.90
2023-02-22T05:16:59.088Z,24.90
2023-02-22T05:19:28.197Z,24.90
2023-02-22T05:21:57.712Z,24.90
2023-02-22T05:24:26.858Z,24.90
2023-02-22T05:26:56.987Z,24.90
2023-02-22T05:29:26.133Z,24.90
2023-02-22T05:31:55.044Z,24.90
2023-02-22T05:34:24.122Z,24.90
2023-02-22T05:36:53.051Z,24.90
2023-02-22T05:39:22.113Z,24.90
2023-02-22T05:41:51.317Z,24.90
2023-02-22T05:44:22.053Z,24.90
2023-02-22T05:46:50.910Z,24.90
2023-02-22T05:49:20.060Z,24.90
2023-02-22T05:51:48.864Z,24.90
2023-02-22T05:54:18.117Z,24.90
2023-02-22T05:56:48.010Z,24.90
2023-02-22T05:59:17.092Z,24.90
2023-02-22T06:01:47.375Z,24.90
2023-02-22T06:04:16.487Z,24.90
2023-02-22T06:06:45.872Z,24.90
2023-02-22T06:09:14.887Z,24.90
2023-02-22T06:11:43.707Z,24.90
2023-02-22T06:14:12.766Z,24.90
2023-02-22T06:16:41.581Z,24.90
2023-02-22T06:19:12.063Z,24.90
2023-02-22T06:21:42.052Z,24.90
2023-02-22T06:24:12.083Z,24.90
2023-02-22T06:26:40.838Z,24.90
2023-02-22T06:29:09.882Z,25.00
2023-02-22T06:31:38.779Z,25.00
2023-02-22T06:34:07.856Z,25.00
2023-02-22T06:36:38.056Z,25.10
2023-02-22T06:39:07.102Z,25.00
2023-02-22T06:41:39.268Z,25.10
2023-02-22T06:44:08.432Z,25.10
2023-02-22T06:46:37.493Z,25.10
2023-02-22T06:49:07.280Z,25.20
2023-02-22T06:51:39.174Z,25.20
2023-02-22T06:54:08.253Z,25.20
2023-02-22T06:56:37.037Z,25.20
2023-02-22T06:59:06.235Z,25.20
2023-02-22T07:01:35.178Z,25.30
2023-02-22T07:04:04.876Z,25.20
2023-02-22T07:06:33.699Z,25.20
2023-02-22T07:09:04.970Z,25.30
2023-02-22T07:11:33.900Z,25.30
2023-02-22T07:14:02.978Z,25.40
2023-02-22T07:16:31.833Z,25.30
2023-02-22T07:19:01.512Z,25.30
2023-02-22T07:21:31.414Z,25.40
2023-02-22T07:24:00.716Z,25.40
2023-02-22T07:26:30.953Z,25.40
2023-02-22T07:29:00.030Z,25.40
2023-02-22T07:31:29.702Z,25.40
2023-02-22T07:33:58.884Z,25.40
2023-02-22T07:36:27.756Z,25.40
2023-02-22T07:38:56.835Z,25.40
2023-02-22T07:41:26.645Z,25.40
2023-02-22T07:43:57.103Z,25.40
2023-02-22T07:46:25.859Z,25.50
2023-02-22T07:48:54.930Z,25.50
2023-02-22T07:51:24.003Z,25.50
2023-02-22T07:53:53.078Z,25.50
2023-02-22T07:56:21.908Z,25.50
2023-02-22T07:58:51.061Z,25.60
2023-02-22T08:01:21.189Z,25.60
2023-02-22T08:03:50.328Z,25.60
2023-02-22T08:06:20.981Z,25.60
2023-02-22T08:08:50.102Z,25.70
2023-02-22T08:11:19.296Z,25.70
2023-02-22T08:13:48.472Z,25.70
2023-02-22T08:16:18.385Z,25.80
2023-02-22T08:18:48.904Z,25.80
2023-02-22T08:21:18.703Z,25.80
2023-02-22T08:23:54.622Z,25.90
2023-02-22T08:26:25.441Z,25.90
2023-02-22T08:28:54.659Z,25.90
2023-02-22T08:31:23.506Z,26.00
2023-02-22T08:33:53.968Z,25.90
2023-02-22T08:36:22.788Z,25.90
2023-02-22T08:38:51.836Z,25.90
2023-02-22T08:41:20.640Z,25.90
2023-02-22T08:43:49.733Z,25.90
2023-02-22T08:46:18.944Z,25.90
2023-02-22T08:48:53.700Z,26.00
2023-02-22T08:51:22.994Z,26.00
2023-02-22T08:53:54.833Z,26.00
2023-02-22T08:56:24.319Z,26.00
2023-02-22T08:58:53.364Z,26.00
2023-02-22T09:01:32.629Z,26.00
2023-02-22T09:04:03.907Z,26.10
2023-02-22T09:06:32.991Z,26.10
2023-02-22T09:09:02.235Z,26.00
2023-02-22T09:11:31.084Z,26.00
2023-02-22T09:14:00.123Z,26.00
2023-02-22T09:16:29.259Z,26.00
2023-02-22T09:18:58.391Z,26.10
2023-02-22T09:21:29.269Z,26.00
2023-02-22T09:23:58.552Z,26.00
2023-02-22T09:26:27.897Z,26.00
2023-02-22T09:28:56.951Z,26.00
2023-02-22T09:31:25.862Z,26.00
2023-02-22T09:33:54.944Z,26.10
2023-02-22T09:36:26.112Z,26.10
2023-02-22T09:38:58.897Z,26.10
2023-02-22T09:41:36.276Z,26.10
2023-02-22T09:44:24.012Z,26.10
2023-02-22T09:46:56.223Z,26.20
2023-02-22T09:49:33.589Z,26.20
2023-02-22T09:52:11.577Z,26.20
2023-02-22T09:54:51.849Z,26.20
2023-02-22T09:57:32.077Z,26.20
2023-02-22T10:00:13.634Z,26.20
2023-02-22T10:03:00.225Z,26.20
2023-02-22T10:05:37.677Z,26.10
2023-02-22T10:08:13.062Z,26.10
2023-02-22T10:10:46.546Z,26.00
2023-02-22T10:13:29.996Z,26.00
2023-02-22T10:16:10.860Z,26.00
2023-02-22T10:19:32.422Z,26.00
2023-02-22T10:22:33.322Z,25.90
2023-02-22T10:25:09.569Z,26.00
2023-02-22T10:27:47.883Z,25.90
2023-02-22T10:30:25.658Z,25.90
2023-02-22T10:33:06.470Z,25.90
2023-02-22T10:35:41.162Z,25.90
2023-02-22T10:38:20.306Z,25.90
2023-02-22T10:40:57.896Z,25.90
2023-02-22T10:43:28.764Z,25.90
2023-02-22T10:46:02.868Z,25.70
2023-02-22T10:48:37.756Z,25.60
2023-02-22T10:51:10.486Z,25.50
2023-02-22T10:53:40.515Z,25.40
2023-02-22T10:56:16.003Z,25.40
2023-02-22T10:58:52.789Z,25.20
2023-02-22T11:01:35.440Z,25.10
2023-02-22T11:04:13.574Z,25.10
2023-02-22T11:06:46.508Z,25.10
2023-02-22T11:09:19.018Z,25.10
2023-02-22T11:11:50.735Z,25.00
2023-02-22T11:14:31.073Z,25.00
2023-02-22T11:17:02.751Z,25.00
2023-02-22T11:19:34.400Z,25.00
2023-02-22T11:22:15.906Z,24.90
2023-02-22T11:27:31.731Z,25.00
2023-02-22T11:30:22.840Z,25.10
2023-02-22T11:32:59.237Z,25.10
2023-02-22T11:35:41.390Z,25.20
2023-02-22T11:38:21.250Z,25.20
2023-02-22T11:41:18.523Z,25.30
2023-02-22T11:43:50.360Z,25.30
2023-02-22T11:46:23.653Z,25.30
2023-02-22T11:49:02.292Z,25.30
2023-02-22T11:51:52.927Z,25.30
2023-02-22T11:54:43.531Z,25.40
2023-02-22T11:57:32.046Z,25.40
2023-02-22T12:00:24.757Z,25.50
2023-02-22T12:03:19.834Z,25.50
2023-02-22T12:06:19.631Z,25.50
2023-02-22T12:09:07.825Z,25.50
2023-02-22T12:11:50.370Z,25.50
2023-02-22T12:14:34.187Z,25.50
2023-02-22T12:17:27.314Z,25.40
2023-02-22T12:20:07.663Z,25.40
2023-02-22T12:22:43.483Z,25.50
2023-02-22T12:25:23.864Z,25.50
2023-02-22T12:27:59.041Z,25.50
2023-02-22T12:30:34.143Z,25.50
2023-02-22T12:33:13.300Z,25.50
2023-02-22T12:35:51.470Z,25.50
2023-02-22T12:38:26.522Z,25.40
2023-02-22T12:41:05.024Z,25.40
2023-02-22T12:43:41.800Z,25.50
2023-02-22T12:46:18.637Z,25.50
2023-02-22T12:48:55.372Z,25.50
2023-02-22T12:51:35.942Z,25.60
2023-02-22T12:54:17.506Z,25.60
2023-02-22T12:56:55.739Z,25.60
2023-02-22T12:59:33.854Z,25.60
2023-02-22T13:02:15.688Z,25.60
2023-02-22T13:04:44.789Z,25.50
2023-02-22T13:07:34.291Z,25.60
2023-02-22T13:10:52.031Z,25.60
2023-02-22T13:13:30.309Z,25.70
2023-02-22T13:16:14.720Z,25.60
2023-02-22T13:18:54.367Z,25.70
2023-02-22T13:21:38.226Z,25.70
2023-02-22T13:24:24.344Z,25.70
2023-02-22T13:27:00.369Z,25.60
2023-02-22T13:29:37.949Z,25.60
2023-02-22T13:32:39.311Z,25.50
2023-02-22T13:35:35.136Z,25.50
2023-02-22T13:38:30.454Z,25.50
2023-02-22T13:41:44.612Z,25.50
2023-02-22T13:44:57.308Z,25.40
2023-02-22T13:48:25.551Z,25.40
2023-02-22T13:51:10.277Z,25.20
2023-02-22T13:53:50.510Z,25.20
2023-02-22T13:56:23.639Z,25.20
2023-02-22T13:58:56.529Z,25.20
2023-02-22T14:01:48.083Z,25.20
2023-02-22T14:04:44.310Z,25.20
2023-02-22T14:07:51.361Z,25.30
2023-02-22T14:10:48.571Z,25.30
2023-02-22T14:13:22.642Z,25.30
2023-02-22T14:16:25.933Z,25.30
2023-02-22T14:19:06.564Z,25.30
2023-02-22T14:21:36.887Z,25.30
2023-02-22T14:24:13.576Z,25.30
2023-02-22T14:26:59.403Z,25.30
2023-02-22T14:29:29.937Z,25.30
2023-02-22T14:32:07.606Z,25.30
2023-02-22T14:34:48.767Z,25.30
2023-02-22T14:37:22.036Z,25.20
2023-02-22T14:39:58.369Z,25.20
2023-02-22T14:42:35.832Z,25.10
2023-02-22T14:45:21.844Z,25.10
2023-02-22T14:48:04.023Z,25.10
2023-02-22T14:50:48.778Z,25.00
2023-02-22T14:53:28.407Z,25.00
2023-02-22T14:56:03.467Z,24.90
2023-02-22T14:58:41.985Z,24.90
2023-02-22T15:01:47.488Z,24.90
2023-02-22T15:04:26.858Z,24.90
2023-02-22T15:06:58.151Z,24.90
2023-02-22T15:09:32.871Z,24.90
2023-02-22T15:12:22.225Z,24.80
2023-02-22T15:14:51.778Z,24.80
2023-02-22T15:17:27.164Z,24.80
2023-02-22T15:19:56.941Z,24.80
2023-02-22T15:22:31.081Z,24.70
2023-02-22T15:25:03.349Z,24.80
2023-02-22T15:27:36.852Z,24.80
2023-02-22T15:30:10.781Z,24.70
2023-02-22T15:32:56.998Z,24.70
2023-02-22T15:35:34.594Z,24.70
2023-02-22T15:38:07.535Z,24.70
2023-02-22T15:40:42.968Z,24.70
2023-02-22T15:43:24.172Z,24.70
2023-02-22T15:45:54.232Z,24.70
2023-02-22T15:48:26.353Z,24.70
2023-02-22T15:51:12.446Z,24.60
2023-02-22T15:53:47.954Z,24.70
2023-02-22T15:56:26.497Z,24.60
2023-02-22T15:59:04.689Z,24.60
2023-02-22T16:01:42.087Z,24.60
2023-02-22T16:04:20.864Z,24.60
2023-02-22T16:06:52.385Z,24.60
2023-02-22T16:09:26.248Z,24.60
2023-02-22T16:12:10.734Z,24.60
2023-02-22T16:14:46.131Z,24.50
2023-02-22T16:17:36.443Z,24.50
2023-02-22T16:20:37.310Z,24.40
2023-02-22T16:23:25.429Z,24.30
2023-02-22T16:26:19.437Z,24.30
2023-02-22T16:28:52.450Z,24.30
2023-02-22T16:31:25.307Z,24.30
2023-02-22T16:33:55.910Z,24.30
2023-02-22T16:36:40.133Z,24.30
2023-02-22T16:39:19.055Z,24.30
2023-02-22T16:41:48.080Z,24.30
2023-02-22T16:44:17.409Z,24.30
2023-02-22T16:46:46.399Z,24.20
2023-02-22T16:49:15.859Z,24.20
2023-02-22T16:51:50.661Z,24.20
2023-02-22T16:54:26.640Z,24.10
2023-02-22T16:57:02.054Z,24.10
2023-02-22T16:59:37.407Z,24.10
2023-02-22T17:02:08.335Z,24.20
2023-02-22T17:04:37.416Z,24.10
2023-02-22T17:07:09.370Z,24.10
2023-02-22T17:09:39.577Z,24.10
2023-02-22T17:12:09.707Z,24.00
2023-02-22T17:14:41.004Z,24.00
2023-02-22T17:17:12.213Z,24.00
2023-02-22T17:19:41.275Z,24.00
2023-02-22T17:22:19.550Z,24.10
2023-02-22T17:24:49.076Z,24.10
2023-02-22T17:27:17.869Z,24.10
2023-02-22T17:29:47.970Z,24.10
2023-02-22T17:32:17.333Z,24.10
2023-02-22T17:34:46.442Z,24.20
2023-02-22T17:37:16.589Z,24.20
2023-02-22T17:39:45.655Z,24.30
2023-02-22T17:42:15.618Z,24.30
2023-02-22T17:44:44.675Z,24.30
2023-02-22T17:47:13.481Z,24.30
2023-02-22T17:49:44.231Z,24.30
2023-02-22T17:52:15.672Z,24.40
2023-02-22T17:54:46.195Z,24.40
2023-02-22T17:57:15.418Z,24.40
2023-02-22T17:59:44.494Z,24.50
2023-02-22T18:02:13.411Z,24.50
2023-02-22T18:04:42.462Z,24.50
2023-02-22T18:07:13.234Z,24.50
2023-02-22T18:09:42.972Z,24.50
2023-02-22T18:12:13.580Z,24.50
2023-02-22T18:14:42.725Z,24.60
2023-02-22T18:17:11.526Z,24.60
2023-02-22T18:19:41.748Z,24.60
2023-02-22T18:22:10.547Z,24.50
2023-02-22T18:24:39.660Z,24.50
2023-02-22T18:27:08.538Z,24.60
2023-02-22T18:29:39.056Z,24.60
2023-02-22T18:32:12.648Z,24.60
2023-02-22T18:34:42.367Z,24.60
2023-02-22T18:37:11.279Z,24.50
2023-02-22T18:39:42.938Z,24.60
2023-02-22T18:42:14.665Z,24.50
2023-02-22T18:44:45.109Z,24.60
2023-02-22T18:47:13.856Z,24.60
2023-02-22T18:49:43.057Z,24.60
2023-02-22T18:52:12.229Z,24.60
2023-02-22T18:54:42.979Z,24.60
2023-02-22T18:57:13.810Z,24.60
2023-02-22T18:59:44.920Z,24.60
2023-02-22T19:02:15.905Z,24.60
2023-02-22T19:04:45.162Z,24.60
2023-02-22T19:07:17.995Z,24.60
2023-02-22T19:09:51.070Z,24.50
2023-02-22T19:12:20.568Z,24.50
2023-02-22T19:14:50.995Z,24.50
2023-02-22T19:17:21.544Z,24.50
2023-02-22T19:19:50.701Z,24.50
2023-02-22T19:22:19.478Z,24.50
2023-02-22T19:24:48.578Z,24.50
2023-02-22T19:27:17.363Z,24.40
2023-02-22T19:29:47.686Z,24.30
2023-02-22T19:32:19.397Z,24.30
2023-02-22T19:34:48.544Z,24.30
2023-02-22T19:37:18.803Z,24.30
2023-02-22T19:39:47.912Z,24.20
2023-02-22T19:42:16.685Z,24.20
2023-02-22T19:44:45.773Z,24.20
2023-02-22T19:47:14.623Z,24.10
2023-02-22T19:49:45.123Z,24.10
2023-02-22T19:52:13.932Z,24.10
2023-02-22T19:54:44.524Z,24.10
2023-02-22T19:57:13.467Z,24.10
2023-02-22T19:59:42.655Z,24.10
2023-02-22T20:02:13.028Z,24.10
2023-02-22T20:04:42.226Z,24.10
2023-02-22T20:07:12.584Z,24.10
2023-02-22T20:09:43.203Z,24.10
2023-02-22T20:12:12.115Z,24.10
2023-02-22T20:14:41.212Z,24.10
2023-02-22T20:17:10.334Z,24.10
2023-02-22T20:19:40.667Z,24.10
2023-02-22T20:22:11.602Z,24.10
2023-02-22T20:24:40.820Z,24.10
2023-02-22T20:27:09.728Z,24.00
2023-02-22T20:29:38.848Z,24.00
2023-02-22T20:32:11.492Z,24.00
2023-02-22T20:34:40.671Z,24.00
2023-02-22T20:37:09.471Z,24.10
2023-02-22T20:39:40.313Z,24.00
2023-02-22T20:42:10.929Z,24.00
2023-02-22T20:44:40.109Z,24.00
2023-02-22T20:47:09.064Z,23.90
2023-02-22T20:49:38.347Z,23.90
2023-02-22T20:52:07.392Z,24.00
2023-02-22T20:54:38.032Z,24.00
2023-02-22T20:57:08.748Z,24.00
2023-02-22T20:59:37.954Z,24.10
2023-02-22T21:02:07.529Z,24.10
2023-02-22T21:04:36.650Z,24.10
2023-02-22T21:07:05.482Z,24.10
2023-02-22T21:09:34.557Z,24.10
2023-02-22T21:12:04.293Z,24.10
2023-02-22T21:14:34.872Z,24.10
2023-02-22T21:17:04.650Z,24.10
2023-02-22T21:19:33.898Z,24.10
2023-02-22T21:22:08.207Z,24.10
2023-02-22T21:24:38.026Z,24.10
2023-02-22T21:27:07.037Z,24.10
2023-02-22T21:29:37.683Z,24.10
2023-02-22T21:32:08.725Z,24.10
2023-02-22T21:34:39.686Z,24.00
2023-02-22T21:37:08.625Z,24.00
2023-02-22T21:39:37.712Z,24.00
2023-02-22T21:42:07.606Z,24.00
2023-02-22T21:44:38.212Z,24.00
2023-02-22T21:47:07.514Z,24.00
2023-02-22T21:49:38.092Z,23.90
2023-02-22T21:52:07.872Z,23.90
2023-02-22T21:54:37.249Z,23.90
2023-02-22T21:57:06.902Z,23.90
2023-02-22T21:59:39.440Z,23.90
2023-02-22T22:02:11.206Z,23.90
2023-02-22T22:04:40.312Z,23.90
2023-02-22T22:07:09.110Z,23.90
2023-02-22T22:09:41.353Z,23.70
2023-02-22T22:12:11.738Z,23.60
2023-02-22T22:14:42.768Z,23.60
2023-02-22T22:17:13.152Z,23.60
2023-02-22T22:19:44.476Z,23.60
2023-02-22T22:22:13.423Z,23.60
2023-02-22T22:24:45.841Z,23.60
2023-02-22T22:27:15.106Z,23.60
2023-02-22T22:29:45.573Z,23.60
2023-02-22T22:32:14.479Z,23.60
2023-02-22T22:34:43.646Z,23.60
2023-02-22T22:37:13.280Z,23.50
2023-02-22T22:39:42.516Z,23.50
2023-02-22T22:42:11.545Z,23.40
2023-02-22T22:44:42.274Z,23.40
2023-02-22T22:47:13.718Z,23.50
2023-02-22T22:49:43.019Z,23.50
2023-02-22T22:52:14.587Z,23.60
2023-02-22T22:54:44.777Z,23.60
2023-02-22T22:57:13.743Z,23.60
2023-02-22T22:59:43.139Z,23.60
2023-02-22T23:02:13.337Z,23.60
2023-02-22T23:04:42.428Z,23.60
2023-02-22T23:07:11.195Z,23.60
2023-02-22T23:09:42.251Z,23.50
2023-02-22T23:12:16.947Z,23.50
2023-02-22T23:14:47.091Z,23.50
2023-02-22T23:17:31.460Z,23.50
2023-02-22T23:20:00.934Z,23.50
2023-02-22T23:22:29.828Z,23.60
2023-02-22T23:25:00.964Z,23.60
2023-02-22T23:27:30.360Z,23.40
2023-02-22T23:29:59.462Z,23.50
2023-02-22T23:32:29.625Z,23.50
2023-02-22T23:34:58.716Z,23.20
2023-02-22T23:37:27.541Z,23.20
2023-02-22T23:39:56.591Z,23.30
2023-02-22T23:42:25.351Z,23.30
2023-02-22T23:44:54.431Z,23.10
2023-02-22T23:47:23.257Z,23.00
2023-02-22T23:49:54.598Z,23.00
2023-02-22T23:52:24.887Z,23.00
2023-02-22T23:54:54.569Z,23.00
2023-02-22T23:57:24.729Z,23.10
2023-02-22T23:59:53.821Z,23.10
